Great Neck Estates, New York
Current Conditions -  °F | °C
As of 11:51 PM on Friday 24 Oct 2014 (Local Time) from KLGA Reporting Station
Few Clouds Few Clouds  
Wind Chill: 58°   Ceiling: Unl
Heat Index: 58°   Visibility: 10mi
Dew Point: 41°   Wind: 10mph
Humidity: 53%   Direction: 320°NW
Pressure: 29.83"   Gusts: NA
Location:  40.786°N, 73.7291°W
Report Text: KLGA 250351Z 32009KT 10SM FEW250 14/05 A2983 RMK AO2 SLP101 T01440050
Loading
Personal Weather Stations






























Interactive Weather Map New forecast layout! Learn more

10-Day Weather Forecast

Advertisements
Track Severe Weather on mobile